Aérodrome :
LOGIN :

S'inscrire | Disclaimer

   EN    FR    IT 

 










Légende :    VFR   VFR Marginal   IFR   IFR Intensif   IFR Très Intensif
Visi : 
Plafond : 
>= 8 km
>= 3000ft
5 à 8 km
1000 à 3000 ft
1500m à 5 km
500 à 1000 ft
800 à 1500m
200 à 500 ft
< 800m
< 200 ft
Symboles :   Orages  Brouillard  Fortes neiges  Fortes précipitations  Vent > 20 kt
SIGMETs :   Divers  Orages  Givrage  Turbulence  Onde Orograph.  Cendres Volcan.






- Altitude de l'aérodrome : 481 ft
- Code IATA : DNK


UKDD - Dnipropetrovs'k

DERNIER METAR :
  • 020000Z 00000MPS 9999 BKN016 11/10 Q1006 R26/210370 NOSIG

METARs EXPIRÉS :
  • 012300Z 23003MPS 200V260 9999 BKN006 11/10 Q1005 R26/210370 NOSIG
  • 012200Z 23003MPS 190V260 9999 FEW008 11/09 Q1005 R26/210370 NOSIG

TAF TAF UKDD
Valide du 02 à 00h jusqu'au 03 à 00h UTC


012306Z 0200/0224 28004MPS 9999 BKN015
TEMPO 0200/0206 1100 -SHRA BR BKN004 BKN015CB
BECMG 0216/0218 VRB01MPS
FIR UKDV / Europe



MET'MAP, la Météo Aéronautique d'un coup d'oeil ! - Copyright ORBIFLY Décembre 2007 - Disclaimer

ORBIFLY MET'MAP TEAM :

Programmation & Développement : Alexandra Zaïnal
Sur une idée originale de : Baudouin d'Aumeries
Assistance à la programmation : Marc-Olivier Méhu
Soutien technique & logistique : Manuel Goepfert

Contact : metmap@orbifly.com




SOURCES & CREDITS :

   NOAA